createdAt,value
2022-09-12T00:01:46.053Z,12.54
2022-09-12T00:02:46.008Z,12.49
2022-09-12T00:04:39.124Z,12.46
2022-09-12T00:05:39.106Z,12.40
2022-09-12T00:07:32.206Z,12.40
2022-09-12T00:08:32.194Z,12.43
2022-09-12T00:10:36.184Z,12.47
2022-09-12T00:11:36.170Z,12.50
2022-09-12T00:13:29.081Z,12.47
2022-09-12T00:14:29.071Z,12.53
2022-09-12T00:16:33.130Z,12.39
2022-09-12T00:17:33.053Z,12.43
2022-09-12T00:19:37.047Z,12.37
2022-09-12T00:20:37.029Z,12.40
2022-09-12T00:22:41.029Z,12.32
2022-09-12T00:23:41.020Z,12.25
2022-09-12T00:25:45.005Z,12.29
2022-09-12T00:26:44.989Z,12.13
2022-09-12T00:28:48.986Z,12.17
2022-09-12T00:29:48.976Z,12.22
2022-09-12T00:31:53.005Z,12.28
2022-09-12T00:33:01.603Z,12.20
2022-09-12T00:34:57.438Z,12.28
2022-09-12T00:35:57.417Z,12.25
2022-09-12T00:36:57.414Z,12.18
2022-09-12T00:37:57.405Z,12.25
2022-09-12T00:38:57.400Z,12.29
2022-09-12T00:39:57.452Z,12.18
2022-09-12T00:40:57.387Z,12.21
2022-09-12T00:41:57.377Z,12.15
2022-09-12T00:42:57.373Z,12.12
2022-09-12T00:43:57.368Z,12.09
2022-09-12T00:44:57.362Z,12.15
2022-09-12T00:45:57.430Z,12.21
2022-09-12T00:46:57.349Z,12.17
2022-09-12T00:47:57.345Z,12.17
2022-09-12T00:48:57.336Z,12.25
2022-09-12T00:49:57.329Z,12.27
2022-09-12T00:50:57.326Z,12.29
2022-09-12T00:51:57.318Z,12.21
2022-09-12T00:52:57.311Z,12.28
2022-09-12T00:53:57.306Z,12.32
2022-09-12T00:54:57.300Z,12.29
2022-09-12T00:55:57.290Z,12.39
2022-09-12T00:56:57.283Z,12.43
2022-09-12T00:57:57.279Z,12.43
2022-09-12T00:58:57.273Z,12.39
2022-09-12T00:59:57.268Z,12.39
2022-09-12T01:00:57.370Z,12.39
2022-09-12T01:01:57.323Z,12.43
2022-09-12T01:02:57.250Z,12.43
2022-09-12T01:03:57.241Z,12.47
2022-09-12T01:04:57.237Z,12.49
2022-09-12T01:05:57.224Z,12.42
2022-09-12T01:06:57.222Z,12.37
2022-09-12T01:07:57.215Z,12.45
2022-09-12T01:08:57.213Z,12.45
2022-09-12T01:09:57.202Z,12.46
2022-09-12T01:10:57.212Z,12.42
2022-09-12T01:11:57.193Z,12.40
2022-09-12T01:12:57.182Z,12.45
2022-09-12T01:13:57.175Z,12.36
2022-09-12T01:14:57.171Z,12.45
2022-09-12T01:15:57.166Z,12.40
2022-09-12T01:16:57.160Z,12.37
2022-09-12T01:17:57.155Z,12.32
2022-09-12T01:18:57.145Z,12.27
2022-09-12T01:19:57.140Z,12.32
2022-09-12T01:20:57.135Z,12.28
2022-09-12T01:21:57.125Z,12.21
2022-09-12T01:22:57.118Z,12.15
2022-09-12T01:23:57.114Z,12.13
2022-09-12T01:24:57.109Z,12.06
2022-09-12T01:25:57.102Z,12.07
2022-09-12T01:26:57.094Z,12.02
2022-09-12T01:27:57.085Z,11.87
2022-09-12T01:28:57.079Z,11.90
2022-09-12T01:29:57.074Z,11.95
2022-09-12T01:30:57.068Z,11.84
2022-09-12T01:31:57.065Z,11.86
2022-09-12T01:32:57.060Z,11.86
2022-09-12T01:33:57.049Z,11.81
2022-09-12T01:34:57.042Z,11.86
2022-09-12T01:35:57.037Z,11.81
2022-09-12T01:36:57.030Z,11.73
2022-09-12T01:37:57.031Z,11.80
2022-09-12T01:38:57.017Z,11.77
2022-09-12T01:39:57.028Z,11.72
2022-09-12T01:40:57.013Z,11.68
2022-09-12T01:41:56.995Z,11.69
2022-09-12T01:42:56.993Z,11.66
2022-09-12T01:43:56.983Z,11.65
2022-09-12T01:44:56.977Z,11.60
2022-09-12T01:45:57.009Z,11.65
2022-09-12T01:46:56.966Z,11.66
2022-09-12T01:47:56.959Z,11.57
2022-09-12T01:48:56.951Z,11.65
2022-09-12T01:49:56.945Z,11.68
2022-09-12T01:50:56.942Z,11.59
2022-09-12T01:51:56.932Z,11.60
2022-09-12T01:52:56.923Z,11.54
2022-09-12T01:53:56.917Z,11.54
2022-09-12T01:54:56.916Z,11.57
2022-09-12T01:55:56.908Z,11.52
2022-09-12T01:56:56.899Z,11.48
2022-09-12T01:57:56.893Z,11.51
2022-09-12T01:58:56.892Z,11.51
2022-09-12T01:59:56.885Z,11.37
2022-09-12T02:00:56.917Z,11.44
2022-09-12T02:01:56.892Z,11.47
2022-09-12T02:02:56.861Z,11.35
2022-09-12T02:03:56.855Z,11.40
2022-09-12T02:04:56.845Z,11.43
2022-09-12T02:05:56.840Z,11.40
2022-09-12T02:06:56.838Z,11.36
2022-09-12T02:07:56.833Z,11.33
2022-09-12T02:08:56.819Z,11.35
2022-09-12T02:09:56.816Z,11.32
2022-09-12T02:10:56.810Z,11.26
2022-09-12T02:11:56.802Z,11.30
2022-09-12T02:12:56.794Z,11.32
2022-09-12T02:13:56.797Z,11.32
2022-09-12T02:14:56.782Z,11.23
2022-09-12T02:15:56.777Z,11.25
2022-09-12T02:16:56.773Z,11.26
2022-09-12T02:17:56.764Z,11.22
2022-09-12T02:18:56.755Z,11.17
2022-09-12T02:19:56.749Z,11.15
2022-09-12T02:20:56.742Z,11.12
2022-09-12T02:21:56.736Z,11.18
2022-09-12T02:22:56.728Z,11.14
2022-09-12T02:23:56.723Z,11.15
2022-09-12T02:24:56.716Z,11.12
2022-09-12T02:25:56.709Z,11.18
2022-09-12T02:26:56.702Z,11.17
2022-09-12T02:27:56.698Z,11.18
2022-09-12T02:28:56.684Z,11.14
2022-09-12T02:29:56.683Z,11.17
2022-09-12T02:30:56.697Z,11.05
2022-09-12T02:31:56.679Z,11.11
2022-09-12T02:32:56.664Z,11.10
2022-09-12T02:33:56.662Z,11.12
2022-09-12T02:34:56.651Z,11.10
2022-09-12T02:35:56.644Z,11.00
2022-09-12T02:36:56.636Z,11.00
2022-09-12T02:37:56.631Z,10.99
2022-09-12T02:38:56.628Z,11.04
2022-09-12T02:39:56.655Z,11.05
2022-09-12T02:40:56.612Z,11.04
2022-09-12T02:41:56.607Z,11.04
2022-09-12T02:42:56.597Z,11.00
2022-09-12T02:43:56.587Z,11.07
2022-09-12T02:44:56.584Z,10.97
2022-09-12T02:45:56.600Z,10.99
2022-09-12T02:46:56.575Z,11.08
2022-09-12T02:47:56.571Z,10.96
2022-09-12T02:48:56.563Z,10.97
2022-09-12T02:49:56.549Z,10.99
2022-09-12T02:50:56.545Z,11.00
2022-09-12T02:51:56.534Z,10.92
2022-09-12T02:52:56.529Z,10.87
2022-09-12T02:53:56.524Z,10.94
2022-09-12T02:54:56.517Z,10.93
2022-09-12T02:55:56.506Z,10.90
2022-09-12T02:56:56.502Z,10.81
2022-09-12T02:57:56.496Z,10.89
2022-09-12T02:58:56.485Z,10.90
2022-09-12T02:59:56.484Z,10.92
2022-09-12T03:00:56.516Z,10.93
2022-09-12T03:01:56.506Z,10.86
2022-09-12T03:02:56.465Z,10.87
2022-09-12T03:03:56.463Z,10.89
2022-09-12T03:04:56.449Z,10.87
2022-09-12T03:05:56.443Z,10.87
2022-09-12T03:06:56.434Z,10.89
2022-09-12T03:07:56.432Z,10.84
2022-09-12T03:08:56.423Z,10.89
2022-09-12T03:09:56.419Z,10.82
2022-09-12T03:10:56.411Z,10.79
2022-09-12T03:11:56.403Z,10.89
2022-09-12T03:12:56.400Z,10.82
2022-09-12T03:13:56.388Z,10.89
2022-09-12T03:14:56.382Z,10.84
2022-09-12T03:15:56.378Z,10.74
2022-09-12T03:16:56.368Z,10.76
2022-09-12T03:17:56.361Z,10.81
2022-09-12T03:18:56.355Z,10.61
2022-09-12T03:19:56.355Z,10.75
2022-09-12T03:20:56.343Z,10.78
2022-09-12T03:21:56.336Z,10.74
2022-09-12T03:22:56.329Z,10.75
2022-09-12T03:23:56.324Z,10.71
2022-09-12T03:24:56.315Z,10.69
2022-09-12T03:25:56.311Z,10.76
2022-09-12T03:26:56.302Z,10.81
2022-09-12T03:27:56.293Z,10.72
2022-09-12T03:28:56.286Z,10.78
2022-09-12T03:29:56.280Z,10.82
2022-09-12T03:30:56.343Z,10.78
2022-09-12T03:31:56.270Z,10.68
2022-09-12T03:32:56.261Z,10.67
2022-09-12T03:33:56.253Z,10.60
2022-09-12T03:34:56.245Z,10.61
2022-09-12T03:35:56.247Z,10.63
2022-09-12T03:36:56.231Z,10.61
2022-09-12T03:37:56.228Z,10.63
2022-09-12T03:38:56.219Z,10.61
2022-09-12T03:39:56.236Z,10.57
2022-09-12T03:40:56.210Z,10.61
2022-09-12T03:41:56.199Z,10.56
2022-09-12T03:42:56.191Z,10.69
2022-09-12T03:43:56.181Z,10.61
2022-09-12T03:44:56.190Z,10.57
2022-09-12T03:45:56.189Z,10.61
2022-09-12T03:46:56.162Z,10.61
2022-09-12T03:47:56.158Z,10.61
2022-09-12T03:48:56.146Z,10.59
2022-09-12T03:49:56.140Z,10.56
2022-09-12T03:50:56.131Z,10.48
2022-09-12T03:51:56.158Z,10.49
2022-09-12T03:52:56.121Z,10.46
2022-09-12T03:53:56.115Z,10.49
2022-09-12T03:54:56.107Z,10.40
2022-09-12T03:55:56.102Z,10.49
2022-09-12T03:56:56.093Z,10.51
2022-09-12T03:57:56.085Z,10.40
2022-09-12T03:58:56.081Z,10.46
2022-09-12T03:59:56.073Z,10.48
2022-09-12T04:00:56.107Z,10.41
2022-09-12T04:01:56.097Z,10.41
2022-09-12T04:02:56.063Z,10.42
2022-09-12T04:03:56.043Z,10.35
2022-09-12T04:04:56.038Z,10.42
2022-09-12T04:05:56.030Z,10.57
2022-09-12T04:06:56.023Z,10.35
2022-09-12T04:07:56.017Z,10.40
2022-09-12T04:08:56.011Z,10.44
2022-09-12T04:09:56.006Z,10.42
2022-09-12T04:10:55.995Z,10.38
2022-09-12T04:11:55.991Z,10.41
2022-09-12T04:12:55.978Z,10.37
2022-09-12T04:13:55.975Z,10.33
2022-09-12T04:14:55.969Z,10.42
2022-09-12T04:15:55.962Z,10.25
2022-09-12T04:16:56.013Z,10.40
2022-09-12T04:17:55.948Z,10.34
2022-09-12T04:18:55.940Z,10.34
2022-09-12T04:19:55.928Z,10.34
2022-09-12T04:20:55.927Z,10.42
2022-09-12T04:21:55.916Z,10.37
2022-09-12T04:22:55.910Z,10.25
2022-09-12T04:23:55.902Z,10.23
2022-09-12T04:24:55.896Z,10.26
2022-09-12T04:25:55.888Z,10.25
2022-09-12T04:26:55.884Z,10.28
2022-09-12T04:27:55.872Z,10.26
2022-09-12T04:28:55.867Z,10.22
2022-09-12T04:29:55.861Z,10.26
2022-09-12T04:30:55.879Z,10.26
2022-09-12T04:31:55.844Z,10.25
2022-09-12T04:32:55.837Z,10.25
2022-09-12T04:33:55.832Z,10.23
2022-09-12T04:34:55.821Z,10.20
2022-09-12T04:35:55.818Z,10.26
2022-09-12T04:36:55.811Z,10.22
2022-09-12T04:37:55.803Z,10.22
2022-09-12T04:38:55.799Z,10.25
2022-09-12T04:39:55.821Z,10.23
2022-09-12T04:40:55.782Z,10.22
2022-09-12T04:41:55.772Z,10.25
2022-09-12T04:42:55.768Z,10.23
2022-09-12T04:43:55.760Z,10.31
2022-09-12T04:44:55.754Z,10.23
2022-09-12T04:45:55.788Z,10.40
2022-09-12T04:46:55.738Z,10.38
2022-09-12T04:47:55.729Z,10.41
2022-09-12T04:48:57.081Z,10.17
2022-09-12T04:49:55.718Z,10.38
2022-09-12T04:50:55.709Z,10.35
2022-09-12T04:51:55.704Z,10.28
2022-09-12T04:52:55.695Z,10.33
2022-09-12T04:53:55.686Z,10.48
2022-09-12T04:54:55.694Z,10.48
2022-09-12T04:55:55.667Z,10.42
2022-09-12T04:56:55.672Z,10.35
2022-09-12T04:57:55.662Z,10.44
2022-09-12T04:58:55.651Z,10.42
2022-09-12T04:59:55.643Z,10.48
2022-09-12T05:00:55.650Z,10.51
2022-09-12T05:01:55.648Z,10.51
2022-09-12T05:02:55.621Z,10.49
2022-09-12T05:03:55.614Z,10.59
2022-09-12T05:04:55.606Z,10.56
2022-09-12T05:05:56.529Z,10.57
2022-09-12T05:06:55.594Z,10.60
2022-09-12T05:07:55.585Z,10.63
2022-09-12T05:08:55.581Z,10.59
2022-09-12T05:09:55.572Z,10.69
2022-09-12T05:10:55.562Z,10.72
2022-09-12T05:12:04.536Z,10.72
2022-09-12T05:12:55.557Z,10.82
2022-09-12T05:13:55.546Z,10.76
2022-09-12T05:14:55.541Z,10.71
2022-09-12T05:15:55.531Z,10.84
2022-09-12T05:16:55.572Z,10.84
2022-09-12T05:17:55.515Z,10.90
2022-09-12T05:18:55.509Z,10.90
2022-09-12T05:19:55.506Z,10.93
2022-09-12T05:20:55.499Z,11.00
2022-09-12T05:21:55.488Z,11.11
2022-09-12T05:22:55.481Z,11.17
2022-09-12T05:23:55.475Z,11.15
2022-09-12T05:24:55.463Z,11.23
2022-09-12T05:25:55.464Z,11.23
2022-09-12T05:26:55.456Z,11.29
2022-09-12T05:27:55.446Z,11.26
2022-09-12T05:28:55.442Z,11.40
2022-09-12T05:29:55.434Z,11.37
2022-09-12T05:30:55.470Z,11.51
2022-09-12T05:31:55.420Z,11.63
2022-09-12T05:32:55.412Z,11.77
2022-09-12T05:33:55.403Z,11.88
2022-09-12T05:34:55.396Z,12.45
2022-09-12T05:35:55.392Z,12.85
2022-09-12T05:36:55.389Z,13.42
2022-09-12T05:37:55.378Z,13.95
2022-09-12T05:38:55.371Z,14.33
2022-09-12T05:39:55.391Z,14.88
2022-09-12T05:40:55.361Z,15.28
2022-09-12T05:41:55.353Z,15.57
2022-09-12T05:42:55.349Z,16.00
2022-09-12T05:43:55.343Z,16.49
2022-09-12T05:44:55.336Z,16.74
2022-09-12T05:45:55.368Z,17.09
2022-09-12T05:46:55.325Z,17.46
2022-09-12T05:47:55.317Z,17.78
2022-09-12T05:48:56.567Z,18.19
2022-09-12T05:49:55.306Z,18.45
2022-09-12T05:50:55.304Z,18.84
2022-09-12T05:51:55.301Z,18.95
2022-09-12T05:52:55.296Z,19.18
2022-09-12T05:53:55.287Z,19.51
2022-09-12T05:54:55.281Z,19.67
2022-09-12T05:55:55.279Z,19.92
2022-09-12T05:56:55.272Z,20.10
2022-09-12T05:57:55.270Z,20.24
2022-09-12T05:58:55.263Z,20.43
2022-09-12T05:59:55.261Z,20.66
2022-09-12T06:00:55.265Z,20.72
2022-09-12T06:01:55.306Z,20.93
2022-09-12T06:02:55.250Z,21.03
2022-09-12T06:03:55.246Z,21.32
2022-09-12T06:04:55.245Z,21.50
2022-09-12T06:05:55.236Z,21.60
2022-09-12T06:06:55.237Z,21.66
2022-09-12T06:07:55.229Z,21.82
2022-09-12T06:08:55.229Z,21.98
2022-09-12T06:09:55.223Z,22.08
2022-09-12T06:10:57.319Z,22.13
2022-09-12T06:11:55.223Z,22.33
2022-09-12T06:12:55.217Z,22.33
2022-09-12T06:13:55.213Z,22.47
2022-09-12T06:14:55.206Z,22.48
2022-09-12T06:15:55.206Z,22.48
2022-09-12T06:16:55.266Z,22.51
2022-09-12T06:17:55.199Z,22.41
2022-09-12T06:18:55.195Z,22.10
2022-09-12T06:19:55.194Z,21.50
2022-09-12T06:20:55.192Z,21.07
2022-09-12T06:21:55.191Z,20.65
2022-09-12T06:22:55.183Z,20.43
2022-09-12T06:23:55.180Z,20.59
2022-09-12T06:24:58.003Z,20.97
2022-09-12T06:25:55.174Z,21.33
2022-09-12T06:26:55.173Z,21.61
2022-09-12T06:27:55.171Z,22.04
2022-09-12T06:28:55.168Z,22.44
2022-09-12T06:29:55.168Z,22.63
2022-09-12T06:30:55.192Z,22.87
2022-09-12T06:31:55.161Z,23.05
2022-09-12T06:32:55.198Z,23.40
2022-09-12T06:33:55.155Z,23.65
2022-09-12T06:34:55.155Z,23.96
2022-09-12T06:35:55.150Z,24.11
2022-09-12T06:36:55.146Z,24.28
2022-09-12T06:37:55.148Z,24.43
2022-09-12T06:38:55.149Z,24.45
2022-09-12T06:39:56.111Z,24.50
2022-09-12T06:40:55.144Z,24.58
2022-09-12T06:41:55.142Z,24.66
2022-09-12T06:42:55.138Z,24.73
2022-09-12T06:43:55.141Z,24.81
2022-09-12T06:44:55.138Z,25.04
2022-09-12T06:45:55.252Z,25.10
2022-09-12T06:46:55.132Z,25.13
2022-09-12T06:47:55.131Z,25.26
2022-09-12T06:48:55.135Z,25.28
2022-09-12T06:49:55.129Z,25.25
2022-09-12T06:50:55.130Z,25.38
2022-09-12T06:51:55.129Z,25.58
2022-09-12T06:52:55.130Z,25.60
2022-09-12T06:53:55.130Z,25.59
2022-09-12T06:54:55.124Z,25.54
2022-09-12T06:55:55.125Z,25.62
2022-09-12T06:56:55.131Z,25.59
2022-09-12T06:57:55.125Z,25.72
2022-09-12T06:58:55.126Z,25.81
2022-09-12T06:59:55.120Z,25.78
2022-09-12T07:00:58.939Z,25.65
2022-09-12T07:01:55.178Z,25.25
2022-09-12T07:02:55.120Z,24.86
2022-09-12T07:03:55.128Z,24.85
2022-09-12T07:04:55.126Z,24.58
2022-09-12T07:05:55.122Z,24.33
2022-09-12T07:06:55.117Z,24.11
2022-09-12T07:07:55.118Z,23.71
2022-09-12T07:08:55.118Z,23.18
2022-09-12T07:09:55.120Z,22.78
2022-09-12T07:10:55.120Z,22.15
2022-09-12T07:11:55.114Z,21.37
2022-09-12T07:12:55.112Z,20.92
2022-09-12T07:13:55.112Z,20.62
2022-09-12T07:14:55.105Z,20.19
2022-09-12T07:15:55.111Z,19.85
2022-09-12T07:16:55.139Z,19.66
2022-09-12T07:17:55.102Z,19.51
2022-09-12T07:18:55.099Z,19.33
2022-09-12T07:19:55.099Z,19.19
2022-09-12T07:20:55.100Z,19.11
2022-09-12T07:21:58.505Z,18.96
2022-09-12T07:22:55.093Z,18.74
2022-09-12T07:23:55.090Z,18.55
2022-09-12T07:24:55.090Z,18.28
2022-09-12T07:25:55.080Z,18.00
2022-09-12T07:26:55.082Z,17.94
2022-09-12T07:27:55.083Z,17.89
2022-09-12T07:29:00.693Z,17.85
2022-09-12T07:29:55.077Z,17.83
2022-09-12T07:30:55.104Z,17.87
2022-09-12T07:31:55.078Z,17.71
2022-09-12T07:32:55.087Z,17.64
2022-09-12T07:33:55.152Z,17.60
2022-09-12T07:34:55.062Z,17.64
2022-09-12T07:35:55.064Z,17.48
2022-09-12T07:36:55.053Z,17.45
2022-09-12T07:37:55.046Z,17.56
2022-09-12T07:38:57.363Z,17.54
2022-09-12T07:39:55.081Z,17.42
2022-09-12T07:40:55.041Z,17.34
2022-09-12T07:41:55.041Z,17.45
2022-09-12T07:42:55.036Z,17.33
2022-09-12T07:43:55.025Z,17.29
2022-09-12T07:44:55.028Z,17.26
2022-09-12T07:45:55.064Z,17.27
2022-09-12T07:46:55.020Z,17.29
2022-09-12T07:47:55.017Z,17.23
2022-09-12T07:48:55.014Z,17.11
2022-09-12T07:49:55.009Z,17.12
2022-09-12T07:51:02.175Z,17.14
2022-09-12T07:52:48.126Z,17.15
2022-09-12T07:53:48.173Z,17.06
2022-09-12T07:55:41.224Z,17.16
2022-09-12T07:56:41.208Z,16.99
2022-09-12T07:58:45.214Z,17.15
2022-09-12T07:59:53.337Z,17.11
2022-09-12T08:01:38.157Z,17.05
2022-09-12T08:02:38.175Z,17.15
2022-09-12T08:04:31.118Z,17.11
2022-09-12T08:05:31.016Z,17.14
2022-09-12T08:07:35.019Z,17.15
2022-09-12T08:08:35.012Z,17.14
2022-09-12T08:10:27.947Z,17.29
2022-09-12T08:11:27.932Z,17.41
2022-09-12T08:13:21.061Z,17.41
2022-09-12T08:14:21.048Z,17.52
2022-09-12T08:16:14.196Z,17.41
2022-09-12T08:17:14.158Z,17.48
2022-09-12T08:19:29.224Z,17.59
2022-09-12T08:20:29.241Z,17.72
2022-09-12T08:22:22.322Z,17.90
2022-09-12T08:23:22.307Z,17.85
2022-09-12T08:25:15.230Z,17.95
2022-09-12T08:26:15.216Z,17.97
2022-09-12T08:28:08.336Z,17.95
2022-09-12T08:29:08.325Z,18.01
2022-09-12T08:30:08.315Z,18.00
2022-09-12T08:31:08.353Z,17.97
2022-09-12T08:32:08.308Z,17.87
2022-09-12T08:33:08.328Z,17.83
2022-09-12T08:34:08.304Z,17.94
2022-09-12T08:35:08.300Z,17.94
2022-09-12T08:36:08.293Z,17.95
2022-09-12T08:37:08.288Z,17.90
2022-09-12T08:38:08.287Z,17.97
2022-09-12T08:39:08.282Z,17.97
2022-09-12T08:40:08.333Z,17.94
2022-09-12T08:41:08.276Z,17.97
2022-09-12T08:42:08.306Z,17.95
2022-09-12T08:43:08.269Z,17.98
2022-09-12T08:44:08.263Z,18.05
2022-09-12T08:45:08.265Z,17.97
2022-09-12T08:46:08.350Z,18.01
2022-09-12T08:47:08.254Z,17.95
2022-09-12T08:48:08.248Z,17.98
2022-09-12T08:49:08.247Z,17.86
2022-09-12T08:50:08.245Z,17.89
2022-09-12T08:51:08.268Z,17.87
2022-09-12T08:52:08.235Z,17.89
2022-09-12T08:53:08.233Z,17.80
2022-09-12T08:54:08.229Z,17.83
2022-09-12T08:55:08.222Z,17.79
2022-09-12T08:56:08.221Z,17.72
2022-09-12T08:57:08.217Z,17.74
2022-09-12T08:58:08.210Z,17.72
2022-09-12T08:59:08.208Z,17.79
2022-09-12T09:00:08.206Z,17.63
2022-09-12T09:01:08.238Z,17.71
2022-09-12T09:02:08.238Z,17.78
2022-09-12T09:03:08.194Z,17.85
2022-09-12T09:04:08.187Z,17.79
2022-09-12T09:05:08.187Z,17.90
2022-09-12T09:06:08.179Z,17.86
2022-09-12T09:07:08.178Z,17.87
2022-09-12T09:08:08.174Z,17.87
2022-09-12T09:09:08.168Z,17.94
2022-09-12T09:10:08.162Z,17.87
2022-09-12T09:11:08.161Z,17.87
2022-09-12T09:12:08.157Z,17.97
2022-09-12T09:13:08.153Z,17.92
2022-09-12T09:14:08.152Z,18.01
2022-09-12T09:15:08.147Z,18.03
2022-09-12T09:16:08.257Z,18.03
2022-09-12T09:17:08.150Z,18.03
2022-09-12T09:18:08.134Z,18.11
2022-09-12T09:19:08.132Z,18.11
2022-09-12T09:20:08.127Z,18.08
2022-09-12T09:21:08.123Z,18.10
2022-09-12T09:22:08.125Z,18.18
2022-09-12T09:23:08.151Z,18.16
2022-09-12T09:24:08.123Z,18.25
2022-09-12T09:25:08.109Z,18.31
2022-09-12T09:26:08.106Z,18.28
2022-09-12T09:27:18.341Z,18.29
2022-09-12T09:28:08.096Z,18.18
2022-09-12T09:29:08.098Z,18.28
2022-09-12T09:30:08.088Z,18.23
2022-09-12T09:31:08.144Z,18.23
2022-09-12T09:32:08.084Z,18.29
2022-09-12T09:33:08.079Z,18.33
2022-09-12T09:34:08.079Z,18.45
2022-09-12T09:35:08.072Z,18.45
2022-09-12T09:36:08.069Z,18.52
2022-09-12T09:37:08.064Z,18.63
2022-09-12T09:38:08.063Z,18.66
2022-09-12T09:39:08.059Z,18.66
2022-09-12T09:40:08.075Z,18.56
2022-09-12T09:41:08.049Z,18.60
2022-09-12T09:42:08.046Z,18.71
2022-09-12T09:43:08.046Z,18.60
2022-09-12T09:45:08.036Z,18.59
2022-09-12T09:46:08.083Z,18.75
2022-09-12T09:47:08.042Z,18.81
2022-09-12T09:48:08.026Z,18.80
2022-09-12T09:49:08.023Z,18.86
2022-09-12T09:50:08.021Z,18.59
2022-09-12T09:51:08.016Z,18.73
2022-09-12T09:52:08.014Z,18.71
2022-09-12T09:53:08.024Z,18.77
2022-09-12T09:54:08.007Z,18.89
2022-09-12T09:55:08.007Z,18.84
2022-09-12T09:56:08.000Z,18.80
2022-09-12T09:57:07.994Z,18.90
2022-09-12T09:58:07.992Z,18.98
2022-09-12T09:59:07.989Z,18.95
2022-09-12T10:00:07.985Z,19.04
2022-09-12T10:01:07.996Z,19.16
2022-09-12T10:02:08.031Z,19.29
2022-09-12T10:03:11.459Z,19.37
2022-09-12T10:04:07.973Z,19.45
2022-09-12T10:05:07.972Z,19.59
2022-09-12T10:06:07.966Z,19.58
2022-09-12T10:07:07.964Z,19.64
2022-09-12T10:08:07.962Z,19.79
2022-09-12T10:09:07.958Z,19.82
2022-09-12T10:10:07.953Z,19.88
2022-09-12T10:11:07.950Z,19.84
2022-09-12T10:12:07.950Z,19.86
2022-09-12T10:13:07.945Z,19.82
2022-09-12T10:14:07.947Z,19.71
2022-09-12T10:15:07.945Z,19.73
2022-09-12T10:16:07.987Z,19.77
2022-09-12T10:17:07.936Z,19.89
2022-09-12T10:18:07.932Z,19.86
2022-09-12T10:19:07.931Z,19.85
2022-09-12T10:20:20.887Z,19.88
2022-09-12T10:21:07.927Z,19.84
2022-09-12T10:22:07.924Z,19.76
2022-09-12T10:23:07.918Z,19.84
2022-09-12T10:24:07.920Z,19.73
2022-09-12T10:25:07.914Z,19.79
2022-09-12T10:26:07.907Z,19.71
2022-09-12T10:27:07.909Z,19.91
2022-09-12T10:28:07.907Z,19.86
2022-09-12T10:29:07.901Z,19.85
2022-09-12T10:30:07.910Z,19.66
2022-09-12T10:31:07.947Z,19.62
2022-09-12T10:32:07.896Z,19.70
2022-09-12T10:33:07.891Z,19.67
2022-09-12T10:34:07.890Z,19.73
2022-09-12T10:35:07.885Z,19.79
2022-09-12T10:36:07.885Z,19.64
2022-09-12T10:37:07.882Z,19.81
2022-09-12T10:38:07.879Z,19.84
2022-09-12T10:39:07.876Z,19.81
2022-09-12T10:40:07.984Z,19.81
2022-09-12T10:41:07.873Z,19.84
2022-09-12T10:42:07.870Z,19.76
2022-09-12T10:43:07.865Z,19.73
2022-09-12T10:44:07.861Z,19.79
2022-09-12T10:45:07.866Z,19.89
2022-09-12T10:46:07.870Z,19.88
2022-09-12T10:47:07.854Z,19.92
2022-09-12T10:48:07.891Z,19.89
2022-09-12T10:49:07.847Z,19.85
2022-09-12T10:50:07.847Z,19.88
2022-09-12T10:51:07.846Z,19.89
2022-09-12T10:52:07.844Z,20.03
2022-09-12T10:53:07.840Z,20.03
2022-09-12T10:54:07.837Z,20.13
2022-09-12T10:55:07.834Z,20.18
2022-09-12T10:56:07.835Z,20.10
2022-09-12T10:57:07.829Z,20.16
2022-09-12T10:58:07.828Z,20.25
2022-09-12T10:59:07.827Z,20.43
2022-09-12T11:00:07.821Z,20.48
2022-09-12T11:01:07.851Z,20.59
2022-09-12T11:02:07.887Z,20.70
2022-09-12T11:03:07.815Z,20.70
2022-09-12T11:04:07.813Z,20.62
2022-09-12T11:05:07.807Z,20.67
2022-09-12T11:06:07.804Z,20.74
2022-09-12T11:07:07.804Z,20.84
2022-09-12T11:08:07.803Z,20.72
2022-09-12T11:09:07.803Z,20.81
2022-09-12T11:10:07.800Z,20.80
2022-09-12T11:11:07.796Z,20.80
2022-09-12T11:12:07.794Z,20.90
2022-09-12T11:13:07.791Z,20.99
2022-09-12T11:14:07.787Z,21.07
2022-09-12T11:15:07.789Z,21.03
2022-09-12T11:16:07.850Z,21.17
2022-09-12T11:17:11.641Z,21.21
2022-09-12T11:18:07.786Z,21.21
2022-09-12T11:19:07.780Z,21.29
2022-09-12T11:20:07.781Z,21.35
2022-09-12T11:21:07.775Z,21.39
2022-09-12T11:22:07.774Z,21.39
2022-09-12T11:23:07.769Z,21.52
2022-09-12T11:24:07.773Z,21.57
2022-09-12T11:25:07.765Z,21.73
2022-09-12T11:26:07.766Z,21.75
2022-09-12T11:27:07.763Z,21.80
2022-09-12T11:28:07.763Z,21.88
2022-09-12T11:29:07.766Z,22.02
2022-09-12T11:30:07.759Z,22.02
2022-09-12T11:31:07.886Z,22.13
2022-09-12T11:32:07.759Z,22.13
2022-09-12T11:33:07.772Z,21.91
2022-09-12T11:34:07.753Z,21.67
2022-09-12T11:35:07.753Z,21.50
2022-09-12T11:36:07.751Z,21.50
2022-09-12T11:37:10.943Z,21.39
2022-09-12T11:38:07.747Z,21.33
2022-09-12T11:39:07.747Z,21.35
2022-09-12T11:40:07.773Z,21.12
2022-09-12T11:41:07.753Z,21.15
2022-09-12T11:42:07.740Z,21.22
2022-09-12T11:43:07.747Z,21.22
2022-09-12T11:44:07.737Z,21.33
2022-09-12T11:45:07.737Z,21.39
2022-09-12T11:46:07.760Z,21.43
2022-09-12T11:47:07.735Z,21.35
2022-09-12T11:48:07.731Z,21.27
2022-09-12T11:49:07.730Z,21.32
2022-09-12T11:50:07.728Z,21.18
2022-09-12T11:51:07.725Z,21.09
2022-09-12T11:52:07.724Z,21.17
2022-09-12T11:53:07.733Z,21.15
2022-09-12T11:54:07.720Z,21.21
2022-09-12T11:55:07.726Z,21.17
2022-09-12T11:56:07.715Z,21.22
2022-09-12T11:57:07.717Z,21.12
2022-09-12T11:58:07.715Z,21.15
2022-09-12T11:59:07.712Z,21.30
2022-09-12T12:00:07.712Z,21.39
2022-09-12T12:01:07.709Z,21.43
2022-09-12T12:02:07.775Z,21.52
2022-09-12T12:03:07.703Z,21.54
2022-09-12T12:04:07.709Z,21.62
2022-09-12T12:05:07.697Z,21.57
2022-09-12T12:06:07.701Z,21.55
2022-09-12T12:07:07.698Z,21.60
2022-09-12T12:08:07.697Z,21.66
2022-09-12T12:09:07.697Z,21.62
2022-09-12T12:10:07.694Z,21.70
2022-09-12T12:11:07.697Z,21.73
2022-09-12T12:12:07.692Z,21.70
2022-09-12T12:13:11.942Z,21.72
2022-09-12T12:14:07.690Z,21.72
2022-09-12T12:15:07.687Z,21.64
2022-09-12T12:16:07.727Z,21.52
2022-09-12T12:17:07.683Z,21.57
2022-09-12T12:18:07.681Z,21.46
2022-09-12T12:19:10.705Z,21.40
2022-09-12T12:20:08.891Z,21.48
2022-09-12T12:21:07.679Z,21.35
2022-09-12T12:22:07.676Z,21.43
2022-09-12T12:23:07.676Z,21.42
2022-09-12T12:24:07.677Z,21.55
2022-09-12T12:25:07.675Z,21.57
2022-09-12T12:26:07.671Z,21.66
2022-09-12T12:27:07.670Z,21.72
2022-09-12T12:28:07.666Z,21.70
2022-09-12T12:29:07.669Z,21.82
2022-09-12T12:30:07.686Z,21.82
2022-09-12T12:31:07.682Z,21.83
2022-09-12T12:32:07.666Z,21.99
2022-09-12T12:33:07.659Z,22.04
2022-09-12T12:34:07.661Z,22.07
2022-09-12T12:35:07.657Z,22.07
2022-09-12T12:36:07.656Z,22.10
2022-09-12T12:37:07.654Z,22.14
2022-09-12T12:38:07.654Z,22.11
2022-09-12T12:39:07.658Z,21.95
2022-09-12T12:40:07.684Z,21.96
2022-09-12T12:41:07.646Z,21.89
2022-09-12T12:42:07.647Z,21.92
2022-09-12T12:43:07.664Z,22.02
2022-09-12T12:44:07.654Z,21.98
2022-09-12T12:45:07.643Z,21.92
2022-09-12T12:46:07.673Z,21.95
2022-09-12T12:47:07.646Z,21.96
2022-09-12T12:48:08.272Z,22.07
2022-09-12T12:49:07.638Z,21.99
2022-09-12T12:50:07.746Z,21.89
2022-09-12T12:51:07.638Z,21.85
2022-09-12T12:52:07.634Z,21.85
2022-09-12T12:53:07.663Z,21.92
2022-09-12T12:54:12.369Z,22.02
2022-09-12T12:55:07.671Z,22.00
2022-09-12T12:56:07.629Z,21.99
2022-09-12T12:57:07.638Z,22.04
2022-09-12T12:58:07.680Z,22.06
2022-09-12T12:59:07.626Z,22.06
2022-09-12T13:00:07.719Z,22.06
2022-09-12T13:01:07.620Z,22.06
2022-09-12T13:02:07.785Z,21.99
2022-09-12T13:03:07.622Z,22.08
2022-09-12T13:04:07.621Z,21.98
2022-09-12T13:05:07.618Z,21.92
2022-09-12T13:06:07.625Z,21.95
2022-09-12T13:07:08.638Z,21.92
2022-09-12T13:08:07.648Z,22.00
2022-09-12T13:09:07.615Z,21.95
2022-09-12T13:10:07.614Z,22.15
2022-09-12T13:11:07.612Z,21.88
2022-09-12T13:12:07.616Z,21.89
2022-09-12T13:13:07.644Z,21.79
2022-09-12T13:14:07.612Z,21.70
2022-09-12T13:15:07.609Z,21.73
2022-09-12T13:16:07.681Z,21.75
2022-09-12T13:17:07.611Z,21.64
2022-09-12T13:18:07.654Z,21.66